Arboga, California
Current Conditions -  °F | °C
As of 4:53 PM on Monday 22 Dec 2014 (Local Time) from KMYV Reporting Station
Clear Clear  
Wind Chill: 16°   Ceiling: Unl
Heat Index: 16°   Visibility: 10mi
Dew Point: 12°   Wind: 0mph
Humidity: 80%   Direction: NA
Pressure: 30.16"   Gusts: NA
Location:  39.0904°N, 121.552°W
Report Text: KMYV 230053Z AUTO 00000KT 10SM CLR 16/12 A3016 RMK AO2 SLP218 T01560122
Loading
Personal Weather Stations






























Interactive Weather Map New forecast layout! Learn more

10-Day Weather Forecast

Advertisements
Track Severe Weather on mobile